sensor_id;sensor_type;location;lat;lon;timestamp;temperature;humidity
20057;DHT22;10189;49.546;7.906;2022-11-13T00:01:11;3.20;99.90
20057;DHT22;10189;49.546;7.906;2022-11-13T00:04:06;3.20;99.90
20057;DHT22;10189;49.546;7.906;2022-11-13T00:06:51;3.20;99.90
20057;DHT22;10189;49.546;7.906;2022-11-13T00:09:36;3.10;99.90
20057;DHT22;10189;49.546;7.906;2022-11-13T00:12:20;3.10;99.90
20057;DHT22;10189;49.546;7.906;2022-11-13T00:15:05;3.10;99.90
20057;DHT22;10189;49.546;7.906;2022-11-13T00:17:50;3.10;99.90
20057;DHT22;10189;49.546;7.906;2022-11-13T00:20:35;3.10;99.90
20057;DHT22;10189;49.546;7.906;2022-11-13T00:23:19;3.10;99.90
20057;DHT22;10189;49.546;7.906;2022-11-13T00:28:58;3.00;99.90
20057;DHT22;10189;49.546;7.906;2022-11-13T00:31:45;2.90;99.90
20057;DHT22;10189;49.546;7.906;2022-11-13T00:34:29;2.90;99.90
20057;DHT22;10189;49.546;7.906;2022-11-13T00:37:14;2.90;99.90
20057;DHT22;10189;49.546;7.906;2022-11-13T00:39:58;2.80;99.90
20057;DHT22;10189;49.546;7.906;2022-11-13T00:42:43;2.80;99.90
20057;DHT22;10189;49.546;7.906;2022-11-13T00:45:28;2.90;99.90
20057;DHT22;10189;49.546;7.906;2022-11-13T00:48:12;2.90;99.90
20057;DHT22;10189;49.546;7.906;2022-11-13T00:50:57;2.90;99.90
20057;DHT22;10189;49.546;7.906;2022-11-13T00:53:42;2.90;99.90
20057;DHT22;10189;49.546;7.906;2022-11-13T00:56:27;2.90;99.90
20057;DHT22;10189;49.546;7.906;2022-11-13T00:59:11;3.00;99.90
20057;DHT22;10189;49.546;7.906;2022-11-13T01:01:56;2.90;99.90
20057;DHT22;10189;49.546;7.906;2022-11-13T01:04:41;2.90;99.90
20057;DHT22;10189;49.546;7.906;2022-11-13T01:07:25;2.90;99.90
20057;DHT22;10189;49.546;7.906;2022-11-13T01:10:10;2.80;99.90
20057;DHT22;10189;49.546;7.906;2022-11-13T01:12:56;2.80;99.90
20057;DHT22;10189;49.546;7.906;2022-11-13T01:15:42;2.80;99.90
20057;DHT22;10189;49.546;7.906;2022-11-13T01:18:28;2.80;99.90
20057;DHT22;10189;49.546;7.906;2022-11-13T01:21:15;2.70;99.90
20057;DHT22;10189;49.546;7.906;2022-11-13T01:24:02;2.70;99.90
20057;DHT22;10189;49.546;7.906;2022-11-13T01:26:46;2.70;99.90
20057;DHT22;10189;49.546;7.906;2022-11-13T01:29:32;2.70;99.90
20057;DHT22;10189;49.546;7.906;2022-11-13T01:32:17;2.80;99.90
20057;DHT22;10189;49.546;7.906;2022-11-13T01:35:02;2.80;99.90
20057;DHT22;10189;49.546;7.906;2022-11-13T01:37:47;2.70;99.90
20057;DHT22;10189;49.546;7.906;2022-11-13T01:40:32;2.70;99.90
20057;DHT22;10189;49.546;7.906;2022-11-13T01:49:51;2.70;99.90
20057;DHT22;10189;49.546;7.906;2022-11-13T01:52:40;2.70;99.90
20057;DHT22;10189;49.546;7.906;2022-11-13T01:55:26;2.60;99.90
20057;DHT22;10189;49.546;7.906;2022-11-13T01:58:12;2.60;99.90
20057;DHT22;10189;49.546;7.906;2022-11-13T02:00:57;2.60;99.90
20057;DHT22;10189;49.546;7.906;2022-11-13T02:03:42;2.70;99.90
20057;DHT22;10189;49.546;7.906;2022-11-13T02:06:31;2.70;99.90
20057;DHT22;10189;49.546;7.906;2022-11-13T02:09:22;2.80;99.90
20057;DHT22;10189;49.546;7.906;2022-11-13T02:12:11;2.80;99.90
20057;DHT22;10189;49.546;7.906;2022-11-13T02:14:59;2.80;99.90
20057;DHT22;10189;49.546;7.906;2022-11-13T02:17:55;2.90;99.90
20057;DHT22;10189;49.546;7.906;2022-11-13T02:24:26;2.90;99.90
20057;DHT22;10189;49.546;7.906;2022-11-13T02:27:30;3.00;99.90
20057;DHT22;10189;49.546;7.906;2022-11-13T02:30:26;3.00;99.90
20057;DHT22;10189;49.546;7.906;2022-11-13T02:33:28;3.00;99.90
20057;DHT22;10189;49.546;7.906;2022-11-13T02:36:14;3.00;99.90
20057;DHT22;10189;49.546;7.906;2022-11-13T02:39:05;2.90;99.90
20057;DHT22;10189;49.546;7.906;2022-11-13T02:41:53;2.90;99.90
20057;DHT22;10189;49.546;7.906;2022-11-13T02:44:37;2.90;99.90
20057;DHT22;10189;49.546;7.906;2022-11-13T02:47:22;2.80;99.90
20057;DHT22;10189;49.546;7.906;2022-11-13T02:50:07;2.80;99.90
20057;DHT22;10189;49.546;7.906;2022-11-13T02:52:52;2.90;99.90
20057;DHT22;10189;49.546;7.906;2022-11-13T02:55:36;2.90;99.90
20057;DHT22;10189;49.546;7.906;2022-11-13T02:58:21;2.80;99.90
20057;DHT22;10189;49.546;7.906;2022-11-13T03:01:05;2.80;99.90
20057;DHT22;10189;49.546;7.906;2022-11-13T03:03:50;2.90;99.90
20057;DHT22;10189;49.546;7.906;2022-11-13T03:06:35;3.00;99.90
20057;DHT22;10189;49.546;7.906;2022-11-13T03:09:19;2.90;99.90
20057;DHT22;10189;49.546;7.906;2022-11-13T03:12:05;2.90;99.90
20057;DHT22;10189;49.546;7.906;2022-11-13T03:14:50;2.70;99.90
20057;DHT22;10189;49.546;7.906;2022-11-13T03:17:35;2.70;99.90
20057;DHT22;10189;49.546;7.906;2022-11-13T03:20:19;2.70;99.90
20057;DHT22;10189;49.546;7.906;2022-11-13T03:23:04;2.70;99.90
20057;DHT22;10189;49.546;7.906;2022-11-13T03:25:48;2.60;99.90
20057;DHT22;10189;49.546;7.906;2022-11-13T03:28:34;2.70;99.90
20057;DHT22;10189;49.546;7.906;2022-11-13T03:31:19;2.60;99.90
20057;DHT22;10189;49.546;7.906;2022-11-13T03:34:04;2.60;99.90
20057;DHT22;10189;49.546;7.906;2022-11-13T03:36:48;2.60;99.90
20057;DHT22;10189;49.546;7.906;2022-11-13T03:39:33;2.50;99.90
20057;DHT22;10189;49.546;7.906;2022-11-13T03:42:17;2.50;99.90
20057;DHT22;10189;49.546;7.906;2022-11-13T03:45:02;2.50;99.90
20057;DHT22;10189;49.546;7.906;2022-11-13T03:47:47;2.50;99.90
20057;DHT22;10189;49.546;7.906;2022-11-13T03:50:32;2.50;99.90
20057;DHT22;10189;49.546;7.906;2022-11-13T03:53:17;2.50;99.90
20057;DHT22;10189;49.546;7.906;2022-11-13T03:56:01;2.60;99.90
20057;DHT22;10189;49.546;7.906;2022-11-13T03:58:46;2.50;99.90
20057;DHT22;10189;49.546;7.906;2022-11-13T04:01:30;2.60;99.90
20057;DHT22;10189;49.546;7.906;2022-11-13T04:04:15;2.70;99.90
20057;DHT22;10189;49.546;7.906;2022-11-13T04:07:00;2.70;99.90
20057;DHT22;10189;49.546;7.906;2022-11-13T04:09:44;2.70;99.90
20057;DHT22;10189;49.546;7.906;2022-11-13T04:12:29;2.60;99.90
20057;DHT22;10189;49.546;7.906;2022-11-13T04:15:14;2.60;99.90
20057;DHT22;10189;49.546;7.906;2022-11-13T04:17:58;2.60;99.90
20057;DHT22;10189;49.546;7.906;2022-11-13T04:20:43;2.60;99.90
20057;DHT22;10189;49.546;7.906;2022-11-13T04:23:28;2.60;99.90
20057;DHT22;10189;49.546;7.906;2022-11-13T04:26:12;2.60;99.90
20057;DHT22;10189;49.546;7.906;2022-11-13T04:28:57;2.60;99.90
20057;DHT22;10189;49.546;7.906;2022-11-13T04:31:41;2.70;99.90
20057;DHT22;10189;49.546;7.906;2022-11-13T04:34:26;2.70;99.90
20057;DHT22;10189;49.546;7.906;2022-11-13T04:37:11;2.80;99.90
20057;DHT22;10189;49.546;7.906;2022-11-13T04:39:55;2.80;99.90
20057;DHT22;10189;49.546;7.906;2022-11-13T04:42:40;2.80;99.90
20057;DHT22;10189;49.546;7.906;2022-11-13T04:45:34;2.70;99.90
20057;DHT22;10189;49.546;7.906;2022-11-13T04:48:19;2.70;99.90
20057;DHT22;10189;49.546;7.906;2022-11-13T04:51:04;2.80;99.90
20057;DHT22;10189;49.546;7.906;2022-11-13T04:53:48;2.80;99.90
20057;DHT22;10189;49.546;7.906;2022-11-13T04:56:33;2.90;99.90
20057;DHT22;10189;49.546;7.906;2022-11-13T04:59:17;2.90;99.90
20057;DHT22;10189;49.546;7.906;2022-11-13T05:02:02;2.90;99.90
20057;DHT22;10189;49.546;7.906;2022-11-13T05:04:47;2.90;99.90
20057;DHT22;10189;49.546;7.906;2022-11-13T05:07:32;2.80;99.90
20057;DHT22;10189;49.546;7.906;2022-11-13T05:10:17;2.80;99.90
20057;DHT22;10189;49.546;7.906;2022-11-13T05:13:01;2.90;99.90
20057;DHT22;10189;49.546;7.906;2022-11-13T05:15:46;2.90;99.90
20057;DHT22;10189;49.546;7.906;2022-11-13T05:18:31;3.00;99.90
20057;DHT22;10189;49.546;7.906;2022-11-13T05:21:16;3.00;99.90
20057;DHT22;10189;49.546;7.906;2022-11-13T05:24:00;3.00;99.90
20057;DHT22;10189;49.546;7.906;2022-11-13T05:26:45;3.00;99.90
20057;DHT22;10189;49.546;7.906;2022-11-13T05:29:30;3.00;99.90
20057;DHT22;10189;49.546;7.906;2022-11-13T05:32:15;3.10;99.90
20057;DHT22;10189;49.546;7.906;2022-11-13T05:34:59;3.10;99.90
20057;DHT22;10189;49.546;7.906;2022-11-13T05:37:44;3.00;99.90
20057;DHT22;10189;49.546;7.906;2022-11-13T05:40:29;3.00;99.90
20057;DHT22;10189;49.546;7.906;2022-11-13T05:43:13;3.00;99.90
20057;DHT22;10189;49.546;7.906;2022-11-13T05:46:03;3.00;99.90
20057;DHT22;10189;49.546;7.906;2022-11-13T05:49:00;3.00;99.90
20057;DHT22;10189;49.546;7.906;2022-11-13T05:51:45;2.90;99.90
20057;DHT22;10189;49.546;7.906;2022-11-13T05:54:29;3.00;99.90
20057;DHT22;10189;49.546;7.906;2022-11-13T05:57:14;3.00;99.90
20057;DHT22;10189;49.546;7.906;2022-11-13T05:59:58;2.90;99.90
20057;DHT22;10189;49.546;7.906;2022-11-13T06:02:43;2.90;99.90
20057;DHT22;10189;49.546;7.906;2022-11-13T06:05:27;2.80;99.90
20057;DHT22;10189;49.546;7.906;2022-11-13T06:08:12;2.80;99.90
20057;DHT22;10189;49.546;7.906;2022-11-13T06:11:02;3.00;99.90
20057;DHT22;10189;49.546;7.906;2022-11-13T06:13:49;2.90;99.90
20057;DHT22;10189;49.546;7.906;2022-11-13T06:16:37;2.90;99.90
20057;DHT22;10189;49.546;7.906;2022-11-13T06:19:22;2.90;99.90
20057;DHT22;10189;49.546;7.906;2022-11-13T06:22:07;2.90;99.90
20057;DHT22;10189;49.546;7.906;2022-11-13T06:24:51;2.90;99.90
20057;DHT22;10189;49.546;7.906;2022-11-13T06:27:36;3.00;99.90
20057;DHT22;10189;49.546;7.906;2022-11-13T06:30:21;3.10;99.90
20057;DHT22;10189;49.546;7.906;2022-11-13T06:33:05;3.10;99.90
20057;DHT22;10189;49.546;7.906;2022-11-13T06:35:50;3.00;99.90
20057;DHT22;10189;49.546;7.906;2022-11-13T06:38:36;2.90;99.90
20057;DHT22;10189;49.546;7.906;2022-11-13T06:41:23;2.90;99.90
20057;DHT22;10189;49.546;7.906;2022-11-13T06:44:10;2.90;99.90
20057;DHT22;10189;49.546;7.906;2022-11-13T06:46:54;3.00;99.90
20057;DHT22;10189;49.546;7.906;2022-11-13T06:49:39;3.00;99.90
20057;DHT22;10189;49.546;7.906;2022-11-13T06:52:23;2.90;99.90
20057;DHT22;10189;49.546;7.906;2022-11-13T06:55:08;2.90;99.90
20057;DHT22;10189;49.546;7.906;2022-11-13T06:57:53;2.90;99.90
20057;DHT22;10189;49.546;7.906;2022-11-13T07:00:38;2.90;99.90
20057;DHT22;10189;49.546;7.906;2022-11-13T07:03:25;3.00;99.90
20057;DHT22;10189;49.546;7.906;2022-11-13T07:06:15;3.00;99.90
20057;DHT22;10189;49.546;7.906;2022-11-13T07:09:01;3.10;99.90
20057;DHT22;10189;49.546;7.906;2022-11-13T07:11:45;3.10;99.90
20057;DHT22;10189;49.546;7.906;2022-11-13T07:14:30;3.10;99.90
20057;DHT22;10189;49.546;7.906;2022-11-13T07:17:14;3.00;99.90
20057;DHT22;10189;49.546;7.906;2022-11-13T07:19:59;3.00;99.90
20057;DHT22;10189;49.546;7.906;2022-11-13T07:22:43;3.00;99.90
20057;DHT22;10189;49.546;7.906;2022-11-13T07:25:29;3.00;99.90
20057;DHT22;10189;49.546;7.906;2022-11-13T07:28:14;3.00;99.90
20057;DHT22;10189;49.546;7.906;2022-11-13T07:30:59;3.00;99.90
20057;DHT22;10189;49.546;7.906;2022-11-13T07:33:47;2.90;99.90
20057;DHT22;10189;49.546;7.906;2022-11-13T07:36:32;2.90;99.90
20057;DHT22;10189;49.546;7.906;2022-11-13T07:39:17;2.90;99.90
20057;DHT22;10189;49.546;7.906;2022-11-13T07:42:02;3.00;99.90
20057;DHT22;10189;49.546;7.906;2022-11-13T07:44:46;3.00;99.90
20057;DHT22;10189;49.546;7.906;2022-11-13T07:47:31;3.00;99.90
20057;DHT22;10189;49.546;7.906;2022-11-13T07:50:16;3.00;99.90
20057;DHT22;10189;49.546;7.906;2022-11-13T07:53:03;3.00;99.90
20057;DHT22;10189;49.546;7.906;2022-11-13T07:55:48;2.80;99.90
20057;DHT22;10189;49.546;7.906;2022-11-13T07:58:33;3.00;99.90
20057;DHT22;10189;49.546;7.906;2022-11-13T08:01:18;3.00;99.90
20057;DHT22;10189;49.546;7.906;2022-11-13T08:04:02;3.00;99.90
20057;DHT22;10189;49.546;7.906;2022-11-13T08:06:47;3.20;99.90
20057;DHT22;10189;49.546;7.906;2022-11-13T08:09:32;3.20;99.90
20057;DHT22;10189;49.546;7.906;2022-11-13T08:12:17;3.40;99.90
20057;DHT22;10189;49.546;7.906;2022-11-13T08:15:01;3.50;99.90
20057;DHT22;10189;49.546;7.906;2022-11-13T08:17:55;3.60;99.90
20057;DHT22;10189;49.546;7.906;2022-11-13T08:20:40;3.70;99.90
20057;DHT22;10189;49.546;7.906;2022-11-13T08:23:25;3.70;99.90
20057;DHT22;10189;49.546;7.906;2022-11-13T08:26:09;3.70;99.90
20057;DHT22;10189;49.546;7.906;2022-11-13T08:28:54;3.80;99.90
20057;DHT22;10189;49.546;7.906;2022-11-13T08:31:39;3.80;99.90
20057;DHT22;10189;49.546;7.906;2022-11-13T08:34:23;3.90;99.90
20057;DHT22;10189;49.546;7.906;2022-11-13T08:37:08;4.00;99.90
20057;DHT22;10189;49.546;7.906;2022-11-13T08:39:52;4.10;99.90
20057;DHT22;10189;49.546;7.906;2022-11-13T08:42:38;4.20;99.90
20057;DHT22;10189;49.546;7.906;2022-11-13T08:45:22;4.30;99.90
20057;DHT22;10189;49.546;7.906;2022-11-13T08:48:08;4.50;99.90
20057;DHT22;10189;49.546;7.906;2022-11-13T08:50:54;4.60;99.90
20057;DHT22;10189;49.546;7.906;2022-11-13T08:53:39;4.60;99.90
20057;DHT22;10189;49.546;7.906;2022-11-13T08:56:24;4.70;99.90
20057;DHT22;10189;49.546;7.906;2022-11-13T08:59:09;4.80;99.90
20057;DHT22;10189;49.546;7.906;2022-11-13T09:01:53;4.90;99.90
20057;DHT22;10189;49.546;7.906;2022-11-13T09:04:42;5.00;99.90
20057;DHT22;10189;49.546;7.906;2022-11-13T09:07:27;5.00;99.90
20057;DHT22;10189;49.546;7.906;2022-11-13T09:10:11;5.10;99.90
20057;DHT22;10189;49.546;7.906;2022-11-13T09:13:02;5.20;99.90
20057;DHT22;10189;49.546;7.906;2022-11-13T09:15:47;5.20;99.90
20057;DHT22;10189;49.546;7.906;2022-11-13T09:18:32;5.40;99.90
20057;DHT22;10189;49.546;7.906;2022-11-13T09:21:16;5.50;99.90
20057;DHT22;10189;49.546;7.906;2022-11-13T09:24:01;5.50;99.90
20057;DHT22;10189;49.546;7.906;2022-11-13T09:26:46;5.50;99.90
20057;DHT22;10189;49.546;7.906;2022-11-13T09:29:31;5.60;99.90
20057;DHT22;10189;49.546;7.906;2022-11-13T09:32:16;5.60;99.90
20057;DHT22;10189;49.546;7.906;2022-11-13T09:35:00;5.70;99.90
20057;DHT22;10189;49.546;7.906;2022-11-13T09:37:45;5.90;99.90
20057;DHT22;10189;49.546;7.906;2022-11-13T09:43:40;6.10;99.70
20057;DHT22;10189;49.546;7.906;2022-11-13T09:46:58;6.00;98.70
20057;DHT22;10189;49.546;7.906;2022-11-13T09:50:16;6.10;97.40
20057;DHT22;10189;49.546;7.906;2022-11-13T09:53:09;6.20;96.40
20057;DHT22;10189;49.546;7.906;2022-11-13T09:56:18;6.50;98.20
20057;DHT22;10189;49.546;7.906;2022-11-13T09:59:23;6.60;95.90
20057;DHT22;10189;49.546;7.906;2022-11-13T10:02:17;6.90;93.90
20057;DHT22;10189;49.546;7.906;2022-11-13T10:08:56;7.30;90.40
20057;DHT22;10189;49.546;7.906;2022-11-13T10:11:53;7.50;92.10
20057;DHT22;10189;49.546;7.906;2022-11-13T10:14:43;7.70;90.80
20057;DHT22;10189;49.546;7.906;2022-11-13T10:17:43;7.70;91.10
20057;DHT22;10189;49.546;7.906;2022-11-13T10:20:50;7.80;88.90
20057;DHT22;10189;49.546;7.906;2022-11-13T10:23:38;7.80;87.60
20057;DHT22;10189;49.546;7.906;2022-11-13T10:26:26;8.00;85.90
20057;DHT22;10189;49.546;7.906;2022-11-13T10:29:14;8.00;85.90
20057;DHT22;10189;49.546;7.906;2022-11-13T10:32:32;8.10;85.70
20057;DHT22;10189;49.546;7.906;2022-11-13T10:35:46;8.30;84.70
20057;DHT22;10189;49.546;7.906;2022-11-13T10:38:43;8.40;82.40
20057;DHT22;10189;49.546;7.906;2022-11-13T10:41:31;8.60;82.90
20057;DHT22;10189;49.546;7.906;2022-11-13T10:44:33;8.60;79.50
20057;DHT22;10189;49.546;7.906;2022-11-13T10:47:23;8.70;77.80
20057;DHT22;10189;49.546;7.906;2022-11-13T10:50:11;8.70;79.20
20057;DHT22;10189;49.546;7.906;2022-11-13T10:53:02;8.80;78.80
20057;DHT22;10189;49.546;7.906;2022-11-13T10:55:49;8.90;79.70
20057;DHT22;10189;49.546;7.906;2022-11-13T10:58:37;9.00;77.90
20057;DHT22;10189;49.546;7.906;2022-11-13T11:01:22;9.10;78.90
20057;DHT22;10189;49.546;7.906;2022-11-13T11:04:25;9.10;78.50
20057;DHT22;10189;49.546;7.906;2022-11-13T11:07:15;9.20;79.50
20057;DHT22;10189;49.546;7.906;2022-11-13T11:10:02;9.20;78.40
20057;DHT22;10189;49.546;7.906;2022-11-13T11:13:10;9.30;76.80
20057;DHT22;10189;49.546;7.906;2022-11-13T11:16:05;9.30;78.10
20057;DHT22;10189;49.546;7.906;2022-11-13T11:19:00;9.40;76.80
20057;DHT22;10189;49.546;7.906;2022-11-13T11:21:51;9.30;75.90
20057;DHT22;10189;49.546;7.906;2022-11-13T11:25:19;9.40;75.80
20057;DHT22;10189;49.546;7.906;2022-11-13T11:28:48;9.50;75.50
20057;DHT22;10189;49.546;7.906;2022-11-13T11:31:36;9.50;75.70
20057;DHT22;10189;49.546;7.906;2022-11-13T11:34:39;9.60;77.50
20057;DHT22;10189;49.546;7.906;2022-11-13T11:37:38;9.70;76.90
20057;DHT22;10189;49.546;7.906;2022-11-13T11:40:37;9.80;76.10
20057;DHT22;10189;49.546;7.906;2022-11-13T11:46:51;10.20;77.50
20057;DHT22;10189;49.546;7.906;2022-11-13T11:49:36;10.30;75.00
20057;DHT22;10189;49.546;7.906;2022-11-13T12:05:23;10.50;72.90
20057;DHT22;10189;49.546;7.906;2022-11-13T12:11:34;10.50;73.20
20057;DHT22;10189;49.546;7.906;2022-11-13T12:15:19;10.40;74.90
20057;DHT22;10189;49.546;7.906;2022-11-13T12:21:22;10.30;75.90
20057;DHT22;10189;49.546;7.906;2022-11-13T12:24:52;10.30;77.00
20057;DHT22;10189;49.546;7.906;2022-11-13T12:27:56;10.30;78.10
20057;DHT22;10189;49.546;7.906;2022-11-13T12:31:15;10.40;78.60
20057;DHT22;10189;49.546;7.906;2022-11-13T12:34:18;10.50;78.50
20057;DHT22;10189;49.546;7.906;2022-11-13T12:37:21;10.50;79.90
20057;DHT22;10189;49.546;7.906;2022-11-13T12:40:37;10.50;78.80
20057;DHT22;10189;49.546;7.906;2022-11-13T12:47:00;10.60;78.50
20057;DHT22;10189;49.546;7.906;2022-11-13T12:49:45;10.60;76.50
20057;DHT22;10189;49.546;7.906;2022-11-13T12:52:31;10.50;76.30
20057;DHT22;10189;49.546;7.906;2022-11-13T12:55:28;10.40;75.30
20057;DHT22;10189;49.546;7.906;2022-11-13T12:58:26;10.40;75.90
20057;DHT22;10189;49.546;7.906;2022-11-13T13:04:27;10.20;76.00
20057;DHT22;10189;49.546;7.906;2022-11-13T13:14:00;10.10;76.00
20057;DHT22;10189;49.546;7.906;2022-11-13T13:22:57;10.10;74.80
20057;DHT22;10189;49.546;7.906;2022-11-13T13:25:43;10.10;75.30
20057;DHT22;10189;49.546;7.906;2022-11-13T13:28:29;10.10;73.30
20057;DHT22;10189;49.546;7.906;2022-11-13T13:38:22;10.10;74.60
20057;DHT22;10189;49.546;7.906;2022-11-13T13:41:25;10.10;73.90
20057;DHT22;10189;49.546;7.906;2022-11-13T13:44:23;10.00;73.40
20057;DHT22;10189;49.546;7.906;2022-11-13T13:47:40;10.00;71.80
20057;DHT22;10189;49.546;7.906;2022-11-13T13:50:31;9.90;72.20
20057;DHT22;10189;49.546;7.906;2022-11-13T13:53:24;9.90;73.00
20057;DHT22;10189;49.546;7.906;2022-11-13T13:56:13;9.90;73.40
20057;DHT22;10189;49.546;7.906;2022-11-13T13:58:58;10.00;73.40
20057;DHT22;10189;49.546;7.906;2022-11-13T14:01:56;10.00;74.10
20057;DHT22;10189;49.546;7.906;2022-11-13T14:04:45;10.00;73.40
20057;DHT22;10189;49.546;7.906;2022-11-13T14:07:31;10.00;73.30
20057;DHT22;10189;49.546;7.906;2022-11-13T14:10:26;10.00;72.80
20057;DHT22;10189;49.546;7.906;2022-11-13T14:13:12;10.10;72.80
20057;DHT22;10189;49.546;7.906;2022-11-13T14:16:03;10.10;72.40
20057;DHT22;10189;49.546;7.906;2022-11-13T14:18:49;10.10;72.20
20057;DHT22;10189;49.546;7.906;2022-11-13T14:21:34;10.00;72.60
20057;DHT22;10189;49.546;7.906;2022-11-13T14:27:25;9.90;73.30
20057;DHT22;10189;49.546;7.906;2022-11-13T14:30:25;9.90;73.70
20057;DHT22;10189;49.546;7.906;2022-11-13T14:33:16;9.80;73.50
20057;DHT22;10189;49.546;7.906;2022-11-13T14:36:07;9.80;73.30
20057;DHT22;10189;49.546;7.906;2022-11-13T14:38:52;9.80;73.00
20057;DHT22;10189;49.546;7.906;2022-11-13T14:41:40;9.80;73.50
20057;DHT22;10189;49.546;7.906;2022-11-13T14:44:33;9.70;72.70
20057;DHT22;10189;49.546;7.906;2022-11-13T14:47:26;9.70;73.20
20057;DHT22;10189;49.546;7.906;2022-11-13T14:50:34;9.70;72.40
20057;DHT22;10189;49.546;7.906;2022-11-13T14:56:16;9.50;72.70
20057;DHT22;10189;49.546;7.906;2022-11-13T14:59:15;9.50;71.00
20057;DHT22;10189;49.546;7.906;2022-11-13T15:02:12;9.50;71.00
20057;DHT22;10189;49.546;7.906;2022-11-13T15:04:57;9.40;70.90
20057;DHT22;10189;49.546;7.906;2022-11-13T15:07:44;9.40;71.00
20057;DHT22;10189;49.546;7.906;2022-11-13T15:10:30;9.40;70.90
20057;DHT22;10189;49.546;7.906;2022-11-13T15:13:16;9.30;70.50
20057;DHT22;10189;49.546;7.906;2022-11-13T15:16:01;9.30;70.80
20057;DHT22;10189;49.546;7.906;2022-11-13T15:18:51;9.30;71.00
20057;DHT22;10189;49.546;7.906;2022-11-13T15:21:41;9.30;71.50
20057;DHT22;10189;49.546;7.906;2022-11-13T15:24:27;9.20;71.50
20057;DHT22;10189;49.546;7.906;2022-11-13T15:27:14;9.20;71.60
20057;DHT22;10189;49.546;7.906;2022-11-13T15:29:59;9.10;70.60
20057;DHT22;10189;49.546;7.906;2022-11-13T15:32:44;9.10;71.70
20057;DHT22;10189;49.546;7.906;2022-11-13T15:35:29;9.00;73.40
20057;DHT22;10189;49.546;7.906;2022-11-13T15:38:13;8.70;75.40
20057;DHT22;10189;49.546;7.906;2022-11-13T15:40:58;8.60;77.00
20057;DHT22;10189;49.546;7.906;2022-11-13T15:43:45;8.40;78.20
20057;DHT22;10189;49.546;7.906;2022-11-13T15:46:31;8.30;78.90
20057;DHT22;10189;49.546;7.906;2022-11-13T15:49:15;8.30;79.30
20057;DHT22;10189;49.546;7.906;2022-11-13T15:52:00;8.20;79.30
20057;DHT22;10189;49.546;7.906;2022-11-13T15:54:45;8.10;79.80
20057;DHT22;10189;49.546;7.906;2022-11-13T15:57:30;8.00;79.90
20057;DHT22;10189;49.546;7.906;2022-11-13T16:00:20;7.90;80.50
20057;DHT22;10189;49.546;7.906;2022-11-13T16:03:10;7.70;81.00
20057;DHT22;10189;49.546;7.906;2022-11-13T16:05:57;7.50;81.70
20057;DHT22;10189;49.546;7.906;2022-11-13T16:08:42;7.50;81.80
20057;DHT22;10189;49.546;7.906;2022-11-13T16:11:30;7.40;82.10
20057;DHT22;10189;49.546;7.906;2022-11-13T16:14:16;7.30;82.00
20057;DHT22;10189;49.546;7.906;2022-11-13T16:17:00;7.30;82.40
20057;DHT22;10189;49.546;7.906;2022-11-13T16:19:47;7.10;82.40
20057;DHT22;10189;49.546;7.906;2022-11-13T16:22:34;7.00;83.40
20057;DHT22;10189;49.546;7.906;2022-11-13T16:25:20;6.80;84.40
20057;DHT22;10189;49.546;7.906;2022-11-13T16:28:07;6.70;84.90
20057;DHT22;10189;49.546;7.906;2022-11-13T16:30:59;6.50;85.50
20057;DHT22;10189;49.546;7.906;2022-11-13T16:33:44;6.60;85.00
20057;DHT22;10189;49.546;7.906;2022-11-13T16:36:28;6.40;85.50
20057;DHT22;10189;49.546;7.906;2022-11-13T16:39:15;6.20;86.30
20057;DHT22;10189;49.546;7.906;2022-11-13T16:42:00;6.10;87.00
20057;DHT22;10189;49.546;7.906;2022-11-13T16:44:45;6.00;88.30
20057;DHT22;10189;49.546;7.906;2022-11-13T16:47:29;5.80;89.30
20057;DHT22;10189;49.546;7.906;2022-11-13T16:50:21;5.70;90.10
20057;DHT22;10189;49.546;7.906;2022-11-13T16:53:11;5.80;89.90
20057;DHT22;10189;49.546;7.906;2022-11-13T16:55:55;5.80;89.70
20057;DHT22;10189;49.546;7.906;2022-11-13T16:58:40;5.80;89.40
20057;DHT22;10189;49.546;7.906;2022-11-13T17:01:25;5.80;89.20
20057;DHT22;10189;49.546;7.906;2022-11-13T17:04:12;5.80;89.20
20057;DHT22;10189;49.546;7.906;2022-11-13T17:07:00;5.90;88.80
20057;DHT22;10189;49.546;7.906;2022-11-13T17:09:44;6.00;88.40
20057;DHT22;10189;49.546;7.906;2022-11-13T17:12:29;5.90;87.90
20057;DHT22;10189;49.546;7.906;2022-11-13T17:15:14;5.70;88.60
20057;DHT22;10189;49.546;7.906;2022-11-13T17:17:59;5.50;89.50
20057;DHT22;10189;49.546;7.906;2022-11-13T17:20:43;5.40;90.30
20057;DHT22;10189;49.546;7.906;2022-11-13T17:23:28;5.40;90.10
20057;DHT22;10189;49.546;7.906;2022-11-13T17:26:13;5.40;90.00
20057;DHT22;10189;49.546;7.906;2022-11-13T17:28:58;5.60;89.10
20057;DHT22;10189;49.546;7.906;2022-11-13T17:31:43;5.50;88.80
20057;DHT22;10189;49.546;7.906;2022-11-13T17:34:27;5.30;89.30
20057;DHT22;10189;49.546;7.906;2022-11-13T17:37:12;5.20;89.80
20057;DHT22;10189;49.546;7.906;2022-11-13T17:39:56;5.00;90.70
20057;DHT22;10189;49.546;7.906;2022-11-13T17:42:41;4.80;91.80
20057;DHT22;10189;49.546;7.906;2022-11-13T17:45:25;4.60;92.60
20057;DHT22;10189;49.546;7.906;2022-11-13T17:48:10;4.40;93.40
20057;DHT22;10189;49.546;7.906;2022-11-13T17:50:56;4.30;94.00
20057;DHT22;10189;49.546;7.906;2022-11-13T17:53:42;4.20;95.30
20057;DHT22;10189;49.546;7.906;2022-11-13T17:56:26;4.20;95.80
20057;DHT22;10189;49.546;7.906;2022-11-13T17:59:11;4.10;96.60
20057;DHT22;10189;49.546;7.906;2022-11-13T18:01:56;4.10;96.80
20057;DHT22;10189;49.546;7.906;2022-11-13T18:04:40;4.10;97.30
20057;DHT22;10189;49.546;7.906;2022-11-13T18:07:25;4.10;97.00
20057;DHT22;10189;49.546;7.906;2022-11-13T18:10:09;4.00;97.70
20057;DHT22;10189;49.546;7.906;2022-11-13T18:12:54;4.10;97.10
20057;DHT22;10189;49.546;7.906;2022-11-13T18:15:39;4.00;97.30
20057;DHT22;10189;49.546;7.906;2022-11-13T18:18:24;4.00;97.90
20057;DHT22;10189;49.546;7.906;2022-11-13T18:21:18;3.90;98.60
20057;DHT22;10189;49.546;7.906;2022-11-13T18:24:09;4.00;99.40
20057;DHT22;10189;49.546;7.906;2022-11-13T18:26:56;4.40;97.50
20057;DHT22;10189;49.546;7.906;2022-11-13T18:29:40;4.80;94.20
20057;DHT22;10189;49.546;7.906;2022-11-13T18:32:25;5.00;92.50
20057;DHT22;10189;49.546;7.906;2022-11-13T18:35:10;5.00;91.10
20057;DHT22;10189;49.546;7.906;2022-11-13T18:37:54;4.90;91.40
20057;DHT22;10189;49.546;7.906;2022-11-13T18:40:39;4.90;91.40
20057;DHT22;10189;49.546;7.906;2022-11-13T18:43:24;4.90;91.30
20057;DHT22;10189;49.546;7.906;2022-11-13T18:46:10;4.90;90.30
20057;DHT22;10189;49.546;7.906;2022-11-13T18:48:56;4.80;90.10
20057;DHT22;10189;49.546;7.906;2022-11-13T18:51:42;4.70;90.90
20057;DHT22;10189;49.546;7.906;2022-11-13T18:54:26;4.60;91.10
20057;DHT22;10189;49.546;7.906;2022-11-13T18:57:10;4.50;91.60
20057;DHT22;10189;49.546;7.906;2022-11-13T18:59:55;4.50;91.70
20057;DHT22;10189;49.546;7.906;2022-11-13T19:02:40;4.30;91.60
20057;DHT22;10189;49.546;7.906;2022-11-13T19:05:25;4.20;92.30
20057;DHT22;10189;49.546;7.906;2022-11-13T19:08:09;4.10;92.90
20057;DHT22;10189;49.546;7.906;2022-11-13T19:10:55;4.00;93.80
20057;DHT22;10189;49.546;7.906;2022-11-13T19:13:55;3.90;94.10